sensor_id;sensor_type;location;lat;lon;timestamp;P1;durP1;ratioP1;P2;durP2;ratioP2
52942;SDS011;38809;53.300;6.614;2022-11-15T00:00:47;24.92;;;18.05;;
52942;SDS011;38809;53.300;6.614;2022-11-15T00:03:13;26.38;;;18.08;;
52942;SDS011;38809;53.300;6.614;2022-11-15T00:05:40;25.17;;;18.05;;
52942;SDS011;38809;53.300;6.614;2022-11-15T00:08:06;25.35;;;18.10;;
52942;SDS011;38809;53.300;6.614;2022-11-15T00:10:31;26.33;;;18.63;;
52942;SDS011;38809;53.300;6.614;2022-11-15T00:12:57;23.97;;;17.30;;
52942;SDS011;38809;53.300;6.614;2022-11-15T00:15:23;24.77;;;17.50;;
52942;SDS011;38809;53.300;6.614;2022-11-15T00:17:49;23.97;;;17.80;;
52942;SDS011;38809;53.300;6.614;2022-11-15T00:20:16;23.35;;;16.35;;
52942;SDS011;38809;53.300;6.614;2022-11-15T00:22:42;27.95;;;18.85;;
52942;SDS011;38809;53.300;6.614;2022-11-15T00:25:08;22.30;;;16.63;;
52942;SDS011;38809;53.300;6.614;2022-11-15T00:27:34;23.45;;;16.63;;
52942;SDS011;38809;53.300;6.614;2022-11-15T00:30:00;25.25;;;17.92;;
52942;SDS011;38809;53.300;6.614;2022-11-15T00:32:25;23.52;;;16.90;;
52942;SDS011;38809;53.300;6.614;2022-11-15T00:34:51;24.17;;;17.07;;
52942;SDS011;38809;53.300;6.614;2022-11-15T00:37:17;24.60;;;17.27;;
52942;SDS011;38809;53.300;6.614;2022-11-15T00:39:42;22.90;;;16.43;;
52942;SDS011;38809;53.300;6.614;2022-11-15T00:42:08;22.93;;;16.67;;
52942;SDS011;38809;53.300;6.614;2022-11-15T00:44:34;24.37;;;18.00;;
52942;SDS011;38809;53.300;6.614;2022-11-15T00:46:59;22.03;;;16.23;;
52942;SDS011;38809;53.300;6.614;2022-11-15T00:49:25;23.90;;;17.33;;
52942;SDS011;38809;53.300;6.614;2022-11-15T00:51:50;22.53;;;15.57;;
52942;SDS011;38809;53.300;6.614;2022-11-15T00:54:16;21.43;;;15.30;;
52942;SDS011;38809;53.300;6.614;2022-11-15T00:56:42;20.67;;;16.20;;
52942;SDS011;38809;53.300;6.614;2022-11-15T00:59:07;21.40;;;15.40;;
52942;SDS011;38809;53.300;6.614;2022-11-15T01:01:33;22.70;;;15.67;;
52942;SDS011;38809;53.300;6.614;2022-11-15T01:03:58;23.53;;;16.53;;
52942;SDS011;38809;53.300;6.614;2022-11-15T01:06:24;22.93;;;16.40;;
52942;SDS011;38809;53.300;6.614;2022-11-15T01:08:50;23.73;;;16.50;;
52942;SDS011;38809;53.300;6.614;2022-11-15T01:11:15;26.57;;;17.40;;
52942;SDS011;38809;53.300;6.614;2022-11-15T01:13:41;24.92;;;17.05;;
52942;SDS011;38809;53.300;6.614;2022-11-15T01:16:08;28.20;;;17.37;;
52942;SDS011;38809;53.300;6.614;2022-11-15T01:18:34;23.15;;;16.85;;
52942;SDS011;38809;53.300;6.614;2022-11-15T01:21:04;23.25;;;16.52;;
52942;SDS011;38809;53.300;6.614;2022-11-15T01:23:34;22.58;;;16.52;;
52942;SDS011;38809;53.300;6.614;2022-11-15T01:26:00;23.38;;;16.20;;
52942;SDS011;38809;53.300;6.614;2022-11-15T01:28:31;21.02;;;15.18;;
52942;SDS011;38809;53.300;6.614;2022-11-15T01:30:58;22.67;;;15.80;;
52942;SDS011;38809;53.300;6.614;2022-11-15T01:33:29;20.60;;;14.95;;
52942;SDS011;38809;53.300;6.614;2022-11-15T01:35:55;23.02;;;15.48;;
52942;SDS011;38809;53.300;6.614;2022-11-15T01:38:21;21.60;;;15.30;;
52942;SDS011;38809;53.300;6.614;2022-11-15T01:40:47;21.50;;;15.02;;
52942;SDS011;38809;53.300;6.614;2022-11-15T01:43:20;22.60;;;15.48;;
52942;SDS011;38809;53.300;6.614;2022-11-15T01:48:38;22.23;;;14.75;;
52942;SDS011;38809;53.300;6.614;2022-11-15T01:51:05;21.33;;;14.02;;
52942;SDS011;38809;53.300;6.614;2022-11-15T01:53:34;22.40;;;15.68;;
52942;SDS011;38809;53.300;6.614;2022-11-15T01:56:04;24.33;;;15.77;;
52942;SDS011;38809;53.300;6.614;2022-11-15T01:58:33;21.83;;;15.45;;
52942;SDS011;38809;53.300;6.614;2022-11-15T02:01:00;23.90;;;16.85;;
52942;SDS011;38809;53.300;6.614;2022-11-15T02:03:27;22.38;;;16.70;;
52942;SDS011;38809;53.300;6.614;2022-11-15T02:06:25;21.73;;;15.57;;
52942;SDS011;38809;53.300;6.614;2022-11-15T02:08:51;22.53;;;16.93;;
52942;SDS011;38809;53.300;6.614;2022-11-15T02:11:17;26.15;;;19.30;;
52942;SDS011;38809;53.300;6.614;2022-11-15T02:13:43;25.58;;;17.40;;
52942;SDS011;38809;53.300;6.614;2022-11-15T02:18:46;23.48;;;16.23;;
52942;SDS011;38809;53.300;6.614;2022-11-15T02:21:19;23.70;;;16.48;;
52942;SDS011;38809;53.300;6.614;2022-11-15T02:35:22;22.88;;;15.50;;
52942;SDS011;38809;53.300;6.614;2022-11-15T02:38:22;24.63;;;15.82;;
52942;SDS011;38809;53.300;6.614;2022-11-15T02:41:13;21.45;;;14.32;;
52942;SDS011;38809;53.300;6.614;2022-11-15T02:44:26;23.15;;;15.25;;
52942;SDS011;38809;53.300;6.614;2022-11-15T02:46:48;22.95;;;15.10;;
52942;SDS011;38809;53.300;6.614;2022-11-15T02:49:48;23.50;;;15.55;;
52942;SDS011;38809;53.300;6.614;2022-11-15T02:52:17;24.85;;;15.65;;
52942;SDS011;38809;53.300;6.614;2022-11-15T02:54:57;23.42;;;15.80;;
52942;SDS011;38809;53.300;6.614;2022-11-15T03:00:03;27.35;;;16.48;;
52942;SDS011;38809;53.300;6.614;2022-11-15T03:13:17;26.95;;;17.05;;
52942;SDS011;38809;53.300;6.614;2022-11-15T03:19:04;26.67;;;16.95;;
52942;SDS011;38809;53.300;6.614;2022-11-15T03:21:28;30.52;;;18.45;;
52942;SDS011;38809;53.300;6.614;2022-11-15T03:23:57;30.15;;;17.73;;
52942;SDS011;38809;53.300;6.614;2022-11-15T03:26:26;30.00;;;18.02;;
52942;SDS011;38809;53.300;6.614;2022-11-15T03:28:58;30.00;;;17.50;;
52942;SDS011;38809;53.300;6.614;2022-11-15T03:31:38;28.42;;;18.50;;
52942;SDS011;38809;53.300;6.614;2022-11-15T03:34:58;30.45;;;18.10;;
52942;SDS011;38809;53.300;6.614;2022-11-15T03:37:04;27.20;;;17.00;;
52942;SDS011;38809;53.300;6.614;2022-11-15T03:39:32;30.67;;;18.52;;
52942;SDS011;38809;53.300;6.614;2022-11-15T03:44:46;25.40;;;16.40;;
52942;SDS011;38809;53.300;6.614;2022-11-15T03:47:38;27.98;;;16.83;;
52942;SDS011;38809;53.300;6.614;2022-11-15T03:50:13;29.55;;;17.67;;
52942;SDS011;38809;53.300;6.614;2022-11-15T03:52:41;31.05;;;17.73;;
52942;SDS011;38809;53.300;6.614;2022-11-15T03:55:11;32.63;;;19.25;;
52942;SDS011;38809;53.300;6.614;2022-11-15T03:57:40;28.73;;;17.55;;
52942;SDS011;38809;53.300;6.614;2022-11-15T04:00:05;31.05;;;18.67;;
52942;SDS011;38809;53.300;6.614;2022-11-15T04:02:32;33.00;;;19.08;;
52942;SDS011;38809;53.300;6.614;2022-11-15T04:04:57;29.80;;;17.93;;
52942;SDS011;38809;53.300;6.614;2022-11-15T04:07:23;32.10;;;18.87;;
52942;SDS011;38809;53.300;6.614;2022-11-15T04:09:48;28.67;;;18.27;;
52942;SDS011;38809;53.300;6.614;2022-11-15T04:12:34;31.48;;;17.58;;
52942;SDS011;38809;53.300;6.614;2022-11-15T04:15:11;28.02;;;17.40;;
52942;SDS011;38809;53.300;6.614;2022-11-15T04:17:49;29.75;;;17.08;;
52942;SDS011;38809;53.300;6.614;2022-11-15T04:20:18;28.67;;;16.70;;
52942;SDS011;38809;53.300;6.614;2022-11-15T04:23:05;27.15;;;17.15;;
52942;SDS011;38809;53.300;6.614;2022-11-15T04:26:01;28.42;;;17.02;;
52942;SDS011;38809;53.300;6.614;2022-11-15T04:28:28;30.52;;;17.67;;
52942;SDS011;38809;53.300;6.614;2022-11-15T04:30:54;29.33;;;17.30;;
52942;SDS011;38809;53.300;6.614;2022-11-15T04:33:20;29.90;;;17.58;;
52942;SDS011;38809;53.300;6.614;2022-11-15T04:35:46;28.77;;;17.15;;
52942;SDS011;38809;53.300;6.614;2022-11-15T04:38:32;31.95;;;17.05;;
52942;SDS011;38809;53.300;6.614;2022-11-15T04:40:58;29.35;;;17.92;;
52942;SDS011;38809;53.300;6.614;2022-11-15T04:43:24;31.92;;;18.65;;
52942;SDS011;38809;53.300;6.614;2022-11-15T04:45:50;32.80;;;17.30;;
52942;SDS011;38809;53.300;6.614;2022-11-15T04:48:16;32.60;;;18.97;;
52942;SDS011;38809;53.300;6.614;2022-11-15T04:50:41;33.27;;;19.37;;
52942;SDS011;38809;53.300;6.614;2022-11-15T04:53:07;33.87;;;18.83;;
52942;SDS011;38809;53.300;6.614;2022-11-15T04:55:33;35.23;;;19.03;;
52942;SDS011;38809;53.300;6.614;2022-11-15T04:57:58;33.60;;;18.60;;
52942;SDS011;38809;53.300;6.614;2022-11-15T05:00:25;31.65;;;18.08;;
52942;SDS011;38809;53.300;6.614;2022-11-15T05:05:36;28.60;;;17.40;;
52942;SDS011;38809;53.300;6.614;2022-11-15T05:08:02;32.78;;;18.48;;
52942;SDS011;38809;53.300;6.614;2022-11-15T05:10:28;34.92;;;19.90;;
52942;SDS011;38809;53.300;6.614;2022-11-15T05:12:54;31.93;;;18.83;;
52942;SDS011;38809;53.300;6.614;2022-11-15T05:15:19;34.50;;;19.20;;
52942;SDS011;38809;53.300;6.614;2022-11-15T05:17:45;36.60;;;19.90;;
52942;SDS011;38809;53.300;6.614;2022-11-15T05:20:11;36.00;;;20.95;;
52942;SDS011;38809;53.300;6.614;2022-11-15T05:22:37;40.35;;;21.85;;
52942;SDS011;38809;53.300;6.614;2022-11-15T05:25:03;37.57;;;20.90;;
52942;SDS011;38809;53.300;6.614;2022-11-15T05:27:29;38.70;;;21.63;;
52942;SDS011;38809;53.300;6.614;2022-11-15T05:29:54;37.87;;;20.30;;
52942;SDS011;38809;53.300;6.614;2022-11-15T05:32:20;39.03;;;22.00;;
52942;SDS011;38809;53.300;6.614;2022-11-15T05:34:46;38.65;;;21.33;;
52942;SDS011;38809;53.300;6.614;2022-11-15T05:37:12;35.67;;;19.80;;
52942;SDS011;38809;53.300;6.614;2022-11-15T05:39:39;37.03;;;20.13;;
52942;SDS011;38809;53.300;6.614;2022-11-15T05:42:11;38.20;;;22.23;;
52942;SDS011;38809;53.300;6.614;2022-11-15T05:44:41;38.92;;;22.05;;
52942;SDS011;38809;53.300;6.614;2022-11-15T05:47:11;38.67;;;21.63;;
52942;SDS011;38809;53.300;6.614;2022-11-15T05:49:41;43.72;;;22.00;;
52942;SDS011;38809;53.300;6.614;2022-11-15T05:52:09;41.45;;;22.38;;
52942;SDS011;38809;53.300;6.614;2022-11-15T05:54:37;42.90;;;22.80;;
52942;SDS011;38809;53.300;6.614;2022-11-15T05:57:03;42.85;;;23.65;;
52942;SDS011;38809;53.300;6.614;2022-11-15T05:59:29;44.83;;;23.42;;
52942;SDS011;38809;53.300;6.614;2022-11-15T06:01:56;42.97;;;22.65;;
52942;SDS011;38809;53.300;6.614;2022-11-15T06:04:22;49.15;;;23.55;;
52942;SDS011;38809;53.300;6.614;2022-11-15T06:06:48;46.30;;;23.83;;
52942;SDS011;38809;53.300;6.614;2022-11-15T06:09:13;50.47;;;23.60;;
52942;SDS011;38809;53.300;6.614;2022-11-15T06:11:39;46.27;;;24.63;;
52942;SDS011;38809;53.300;6.614;2022-11-15T06:14:05;43.30;;;24.00;;
52942;SDS011;38809;53.300;6.614;2022-11-15T06:16:30;64.50;;;27.65;;
52942;SDS011;38809;53.300;6.614;2022-11-15T06:18:56;60.53;;;27.23;;
52942;SDS011;38809;53.300;6.614;2022-11-15T06:21:22;62.13;;;27.80;;
52942;SDS011;38809;53.300;6.614;2022-11-15T06:23:48;66.50;;;27.90;;
52942;SDS011;38809;53.300;6.614;2022-11-15T06:26:13;58.47;;;27.33;;
52942;SDS011;38809;53.300;6.614;2022-11-15T06:28:39;66.37;;;28.60;;
52942;SDS011;38809;53.300;6.614;2022-11-15T06:31:06;71.03;;;29.80;;
52942;SDS011;38809;53.300;6.614;2022-11-15T06:33:34;69.72;;;28.83;;
52942;SDS011;38809;53.300;6.614;2022-11-15T06:36:00;71.03;;;29.42;;
52942;SDS011;38809;53.300;6.614;2022-11-15T06:38:27;75.10;;;30.30;;
52942;SDS011;38809;53.300;6.614;2022-11-15T06:40:53;68.93;;;29.53;;
52942;SDS011;38809;53.300;6.614;2022-11-15T06:43:19;73.03;;;31.20;;
52942;SDS011;38809;53.300;6.614;2022-11-15T06:45:44;70.63;;;30.27;;
52942;SDS011;38809;53.300;6.614;2022-11-15T06:48:10;74.43;;;31.23;;
52942;SDS011;38809;53.300;6.614;2022-11-15T06:50:36;75.63;;;31.20;;
52942;SDS011;38809;53.300;6.614;2022-11-15T06:53:02;81.00;;;32.10;;
52942;SDS011;38809;53.300;6.614;2022-11-15T06:55:28;74.68;;;31.00;;
52942;SDS011;38809;53.300;6.614;2022-11-15T06:57:54;78.70;;;31.35;;
52942;SDS011;38809;53.300;6.614;2022-11-15T07:00:20;68.75;;;31.05;;
52942;SDS011;38809;53.300;6.614;2022-11-15T07:02:47;75.13;;;29.85;;
52942;SDS011;38809;53.300;6.614;2022-11-15T07:05:13;70.25;;;31.85;;
52942;SDS011;38809;53.300;6.614;2022-11-15T07:07:39;63.13;;;28.95;;
52942;SDS011;38809;53.300;6.614;2022-11-15T07:10:06;66.25;;;29.40;;
52942;SDS011;38809;53.300;6.614;2022-11-15T07:12:32;63.05;;;28.10;;
52942;SDS011;38809;53.300;6.614;2022-11-15T07:14:58;66.05;;;28.63;;
52942;SDS011;38809;53.300;6.614;2022-11-15T07:17:23;70.22;;;28.83;;
52942;SDS011;38809;53.300;6.614;2022-11-15T07:19:49;62.07;;;29.83;;
52942;SDS011;38809;53.300;6.614;2022-11-15T07:22:15;55.63;;;26.47;;
52942;SDS011;38809;53.300;6.614;2022-11-15T07:24:40;56.87;;;26.23;;
52942;SDS011;38809;53.300;6.614;2022-11-15T07:27:06;60.87;;;27.90;;
52942;SDS011;38809;53.300;6.614;2022-11-15T07:29:32;58.13;;;27.83;;
52942;SDS011;38809;53.300;6.614;2022-11-15T07:31:58;60.60;;;27.33;;
52942;SDS011;38809;53.300;6.614;2022-11-15T07:34:24;58.25;;;26.50;;
52942;SDS011;38809;53.300;6.614;2022-11-15T07:36:49;59.33;;;27.85;;
52942;SDS011;38809;53.300;6.614;2022-11-15T07:39:15;57.47;;;26.60;;
52942;SDS011;38809;53.300;6.614;2022-11-15T07:41:41;52.37;;;26.70;;
52942;SDS011;38809;53.300;6.614;2022-11-15T07:44:08;59.45;;;26.83;;
52942;SDS011;38809;53.300;6.614;2022-11-15T07:46:34;63.97;;;28.42;;
52942;SDS011;38809;53.300;6.614;2022-11-15T07:48:59;55.78;;;27.48;;
52942;SDS011;38809;53.300;6.614;2022-11-15T07:51:25;53.03;;;26.67;;
52942;SDS011;38809;53.300;6.614;2022-11-15T07:53:51;60.00;;;27.87;;
52942;SDS011;38809;53.300;6.614;2022-11-15T07:56:16;60.60;;;27.77;;
52942;SDS011;38809;53.300;6.614;2022-11-15T07:58:42;51.90;;;26.55;;
52942;SDS011;38809;53.300;6.614;2022-11-15T08:01:10;60.63;;;26.65;;
52942;SDS011;38809;53.300;6.614;2022-11-15T08:03:36;56.63;;;26.15;;
52942;SDS011;38809;53.300;6.614;2022-11-15T08:06:02;59.45;;;26.63;;
52942;SDS011;38809;53.300;6.614;2022-11-15T08:08:28;64.05;;;27.77;;
52942;SDS011;38809;53.300;6.614;2022-11-15T08:10:54;56.37;;;27.23;;
52942;SDS011;38809;53.300;6.614;2022-11-15T08:13:22;54.83;;;26.67;;
52942;SDS011;38809;53.300;6.614;2022-11-15T08:15:47;53.70;;;26.10;;
52942;SDS011;38809;53.300;6.614;2022-11-15T08:18:13;57.35;;;26.42;;
52942;SDS011;38809;53.300;6.614;2022-11-15T08:20:41;57.17;;;25.92;;
52942;SDS011;38809;53.300;6.614;2022-11-15T08:23:07;54.97;;;24.98;;
52942;SDS011;38809;53.300;6.614;2022-11-15T08:25:36;53.13;;;24.73;;
52942;SDS011;38809;53.300;6.614;2022-11-15T08:28:04;53.92;;;25.98;;
52942;SDS011;38809;53.300;6.614;2022-11-15T08:30:34;48.63;;;25.20;;
52942;SDS011;38809;53.300;6.614;2022-11-15T08:33:02;50.92;;;24.90;;
52942;SDS011;38809;53.300;6.614;2022-11-15T08:35:28;42.95;;;23.13;;
52942;SDS011;38809;53.300;6.614;2022-11-15T08:37:54;46.50;;;25.02;;
52942;SDS011;38809;53.300;6.614;2022-11-15T08:40:20;49.23;;;25.77;;
52942;SDS011;38809;53.300;6.614;2022-11-15T08:42:46;43.13;;;24.05;;
52942;SDS011;38809;53.300;6.614;2022-11-15T08:45:12;50.88;;;25.67;;
52942;SDS011;38809;53.300;6.614;2022-11-15T08:47:38;43.15;;;24.38;;
52942;SDS011;38809;53.300;6.614;2022-11-15T08:50:04;41.50;;;23.47;;
52942;SDS011;38809;53.300;6.614;2022-11-15T08:52:30;42.70;;;24.25;;
52942;SDS011;38809;53.300;6.614;2022-11-15T08:54:56;50.05;;;24.20;;
52942;SDS011;38809;53.300;6.614;2022-11-15T08:57:22;42.83;;;23.30;;
52942;SDS011;38809;53.300;6.614;2022-11-15T08:59:48;41.85;;;22.95;;
52942;SDS011;38809;53.300;6.614;2022-11-15T09:02:14;44.67;;;24.23;;
52942;SDS011;38809;53.300;6.614;2022-11-15T09:04:40;42.83;;;23.13;;
52942;SDS011;38809;53.300;6.614;2022-11-15T09:07:08;41.00;;;21.73;;
52942;SDS011;38809;53.300;6.614;2022-11-15T09:09:35;41.83;;;22.45;;
52942;SDS011;38809;53.300;6.614;2022-11-15T09:12:01;43.13;;;21.67;;
52942;SDS011;38809;53.300;6.614;2022-11-15T09:14:26;35.67;;;21.20;;
52942;SDS011;38809;53.300;6.614;2022-11-15T09:16:52;38.83;;;21.83;;
52942;SDS011;38809;53.300;6.614;2022-11-15T09:19:18;39.57;;;19.27;;
52942;SDS011;38809;53.300;6.614;2022-11-15T09:21:43;36.13;;;21.57;;
52942;SDS011;38809;53.300;6.614;2022-11-15T09:24:09;34.97;;;19.97;;
52942;SDS011;38809;53.300;6.614;2022-11-15T09:26:34;35.90;;;19.40;;
52942;SDS011;38809;53.300;6.614;2022-11-15T09:29:00;32.13;;;18.92;;
52942;SDS011;38809;53.300;6.614;2022-11-15T09:31:27;29.40;;;19.02;;
52942;SDS011;38809;53.300;6.614;2022-11-15T09:33:52;30.75;;;19.35;;
52942;SDS011;38809;53.300;6.614;2022-11-15T09:36:18;29.17;;;17.90;;
52942;SDS011;38809;53.300;6.614;2022-11-15T09:38:43;30.70;;;18.40;;
52942;SDS011;38809;53.300;6.614;2022-11-15T09:49:44;25.63;;;17.85;;
52942;SDS011;38809;53.300;6.614;2022-11-15T09:52:10;28.77;;;17.77;;
52942;SDS011;38809;53.300;6.614;2022-11-15T09:54:47;27.17;;;17.65;;
52942;SDS011;38809;53.300;6.614;2022-11-15T10:00:00;25.48;;;16.25;;
52942;SDS011;38809;53.300;6.614;2022-11-15T10:02:40;27.05;;;17.15;;
52942;SDS011;38809;53.300;6.614;2022-11-15T10:05:21;24.70;;;15.68;;
52942;SDS011;38809;53.300;6.614;2022-11-15T10:10:50;29.23;;;17.20;;
52942;SDS011;38809;53.300;6.614;2022-11-15T10:13:28;23.33;;;15.55;;
52942;SDS011;38809;53.300;6.614;2022-11-15T10:16:07;24.53;;;15.70;;
52942;SDS011;38809;53.300;6.614;2022-11-15T10:21:57;27.88;;;16.50;;
52942;SDS011;38809;53.300;6.614;2022-11-15T10:24:47;24.52;;;14.48;;
52942;SDS011;38809;53.300;6.614;2022-11-15T10:27:16;25.65;;;14.50;;
52942;SDS011;38809;53.300;6.614;2022-11-15T10:29:46;25.60;;;14.82;;
52942;SDS011;38809;53.300;6.614;2022-11-15T10:32:15;23.00;;;15.23;;
52942;SDS011;38809;53.300;6.614;2022-11-15T10:34:43;23.38;;;14.65;;
52942;SDS011;38809;53.300;6.614;2022-11-15T10:37:09;22.10;;;14.18;;
52942;SDS011;38809;53.300;6.614;2022-11-15T10:39:34;25.63;;;15.18;;
52942;SDS011;38809;53.300;6.614;2022-11-15T10:44:53;22.90;;;15.00;;
52942;SDS011;38809;53.300;6.614;2022-11-15T10:49:53;25.15;;;15.05;;
52942;SDS011;38809;53.300;6.614;2022-11-15T10:52:21;22.38;;;14.27;;
52942;SDS011;38809;53.300;6.614;2022-11-15T10:54:48;26.55;;;14.57;;
52942;SDS011;38809;53.300;6.614;2022-11-15T10:57:30;23.05;;;15.00;;
52942;SDS011;38809;53.300;6.614;2022-11-15T11:00:04;23.58;;;15.70;;
52942;SDS011;38809;53.300;6.614;2022-11-15T11:02:47;21.00;;;13.95;;
52942;SDS011;38809;53.300;6.614;2022-11-15T11:10:36;22.25;;;13.40;;
52942;SDS011;38809;53.300;6.614;2022-11-15T11:13:19;22.60;;;14.15;;
52942;SDS011;38809;53.300;6.614;2022-11-15T11:15:46;24.50;;;15.38;;
52942;SDS011;38809;53.300;6.614;2022-11-15T11:19:04;22.27;;;13.82;;
52942;SDS011;38809;53.300;6.614;2022-11-15T11:21:22;22.05;;;13.73;;
52942;SDS011;38809;53.300;6.614;2022-11-15T11:24:03;23.85;;;15.00;;
52942;SDS011;38809;53.300;6.614;2022-11-15T11:26:46;22.77;;;14.30;;
52942;SDS011;38809;53.300;6.614;2022-11-15T11:32:20;26.42;;;15.57;;
52942;SDS011;38809;53.300;6.614;2022-11-15T11:34:58;27.45;;;16.30;;
52942;SDS011;38809;53.300;6.614;2022-11-15T11:48:02;20.52;;;13.98;;
52942;SDS011;38809;53.300;6.614;2022-11-15T11:50:34;23.25;;;14.55;;
52942;SDS011;38809;53.300;6.614;2022-11-15T11:53:11;22.88;;;14.43;;
52942;SDS011;38809;53.300;6.614;2022-11-15T12:00:38;18.57;;;13.00;;
52942;SDS011;38809;53.300;6.614;2022-11-15T12:09:15;17.65;;;11.05;;
52942;SDS011;38809;53.300;6.614;2022-11-15T12:11:55;18.98;;;12.32;;
52942;SDS011;38809;53.300;6.614;2022-11-15T12:14:38;16.38;;;11.38;;
52942;SDS011;38809;53.300;6.614;2022-11-15T12:17:19;16.45;;;10.75;;
52942;SDS011;38809;53.300;6.614;2022-11-15T12:19:51;12.63;;;8.82;;
52942;SDS011;38809;53.300;6.614;2022-11-15T12:22:28;14.38;;;9.63;;
52942;SDS011;38809;53.300;6.614;2022-11-15T12:28:16;14.07;;;9.18;;
52942;SDS011;38809;53.300;6.614;2022-11-15T12:30:56;16.38;;;9.05;;
52942;SDS011;38809;53.300;6.614;2022-11-15T12:36:01;14.00;;;9.13;;
52942;SDS011;38809;53.300;6.614;2022-11-15T12:38:54;11.55;;;8.48;;
52942;SDS011;38809;53.300;6.614;2022-11-15T13:02:29;8.10;;;6.07;;
52942;SDS011;38809;53.300;6.614;2022-11-15T13:22:47;7.73;;;5.83;;
52942;SDS011;38809;53.300;6.614;2022-11-15T13:30:36;6.78;;;4.22;;
52942;SDS011;38809;53.300;6.614;2022-11-15T13:35:53;7.35;;;4.60;;
52942;SDS011;38809;53.300;6.614;2022-11-15T13:38:25;6.07;;;4.25;;
52942;SDS011;38809;53.300;6.614;2022-11-15T13:40:56;6.25;;;4.13;;
52942;SDS011;38809;53.300;6.614;2022-11-15T13:43:31;10.27;;;4.10;;
52942;SDS011;38809;53.300;6.614;2022-11-15T13:46:19;7.00;;;3.88;;
52942;SDS011;38809;53.300;6.614;2022-11-15T13:48:45;7.65;;;3.90;;
52942;SDS011;38809;53.300;6.614;2022-11-15T13:51:15;5.72;;;3.50;;
52942;SDS011;38809;53.300;6.614;2022-11-15T13:53:48;5.50;;;3.58;;
52942;SDS011;38809;53.300;6.614;2022-11-15T13:56:21;8.13;;;3.58;;
52942;SDS011;38809;53.300;6.614;2022-11-15T13:58:47;6.80;;;3.83;;
52942;SDS011;38809;53.300;6.614;2022-11-15T14:01:17;7.07;;;4.20;;
52942;SDS011;38809;53.300;6.614;2022-11-15T14:03:56;6.93;;;3.33;;
52942;SDS011;38809;53.300;6.614;2022-11-15T14:06:23;7.13;;;3.35;;
52942;SDS011;38809;53.300;6.614;2022-11-15T14:11:36;8.43;;;3.70;;
52942;SDS011;38809;53.300;6.614;2022-11-15T14:16:41;6.20;;;3.80;;
52942;SDS011;38809;53.300;6.614;2022-11-15T14:19:11;6.20;;;3.50;;
52942;SDS011;38809;53.300;6.614;2022-11-15T14:22:07;5.65;;;3.97;;
52942;SDS011;38809;53.300;6.614;2022-11-15T14:24:38;7.00;;;3.97;;
52942;SDS011;38809;53.300;6.614;2022-11-15T14:29:54;7.15;;;4.18;;
52942;SDS011;38809;53.300;6.614;2022-11-15T14:34:48;6.07;;;3.83;;
52942;SDS011;38809;53.300;6.614;2022-11-15T14:37:22;5.85;;;3.58;;
52942;SDS011;38809;53.300;6.614;2022-11-15T14:39:54;7.13;;;3.60;;
52942;SDS011;38809;53.300;6.614;2022-11-15T14:44:49;5.63;;;3.50;;
52942;SDS011;38809;53.300;6.614;2022-11-15T14:47:15;5.80;;;3.60;;
52942;SDS011;38809;53.300;6.614;2022-11-15T14:49:41;7.60;;;3.22;;
52942;SDS011;38809;53.300;6.614;2022-11-15T14:52:16;5.90;;;3.40;;
52942;SDS011;38809;53.300;6.614;2022-11-15T14:54:51;6.82;;;3.67;;
52942;SDS011;38809;53.300;6.614;2022-11-15T14:57:16;6.53;;;3.80;;
52942;SDS011;38809;53.300;6.614;2022-11-15T14:59:42;7.20;;;3.00;;
52942;SDS011;38809;53.300;6.614;2022-11-15T15:02:10;6.40;;;3.43;;
52942;SDS011;38809;53.300;6.614;2022-11-15T15:04:41;6.13;;;3.20;;
52942;SDS011;38809;53.300;6.614;2022-11-15T15:07:06;4.63;;;3.30;;
52942;SDS011;38809;53.300;6.614;2022-11-15T15:09:32;5.35;;;3.60;;
52942;SDS011;38809;53.300;6.614;2022-11-15T15:11:58;4.97;;;3.13;;
52942;SDS011;38809;53.300;6.614;2022-11-15T15:14:24;4.70;;;3.30;;
52942;SDS011;38809;53.300;6.614;2022-11-15T15:16:49;5.68;;;3.72;;
52942;SDS011;38809;53.300;6.614;2022-11-15T15:19:15;5.53;;;3.35;;
52942;SDS011;38809;53.300;6.614;2022-11-15T15:21:41;5.60;;;3.20;;
52942;SDS011;38809;53.300;6.614;2022-11-15T15:24:08;7.60;;;3.63;;
52942;SDS011;38809;53.300;6.614;2022-11-15T15:26:41;5.35;;;3.30;;
52942;SDS011;38809;53.300;6.614;2022-11-15T15:29:08;5.43;;;3.58;;
52942;SDS011;38809;53.300;6.614;2022-11-15T15:31:34;4.50;;;3.17;;
52942;SDS011;38809;53.300;6.614;2022-11-15T15:34:00;5.85;;;3.38;;
52942;SDS011;38809;53.300;6.614;2022-11-15T15:36:26;5.85;;;3.30;;
52942;SDS011;38809;53.300;6.614;2022-11-15T15:38:52;4.43;;;3.53;;
52942;SDS011;38809;53.300;6.614;2022-11-15T15:41:18;6.10;;;3.55;;
52942;SDS011;38809;53.300;6.614;2022-11-15T15:43:43;4.87;;;3.77;;
52942;SDS011;38809;53.300;6.614;2022-11-15T15:46:10;5.07;;;3.22;;
52942;SDS011;38809;53.300;6.614;2022-11-15T15:48:37;6.53;;;4.03;;
52942;SDS011;38809;53.300;6.614;2022-11-15T15:51:04;7.80;;;3.90;;
52942;SDS011;38809;53.300;6.614;2022-11-15T15:53:30;6.38;;;4.35;;
52942;SDS011;38809;53.300;6.614;2022-11-15T15:55:56;7.10;;;4.18;;
52942;SDS011;38809;53.300;6.614;2022-11-15T15:58:22;6.93;;;4.30;;
52942;SDS011;38809;53.300;6.614;2022-11-15T16:00:48;5.75;;;3.97;;
52942;SDS011;38809;53.300;6.614;2022-11-15T16:03:14;6.15;;;4.15;;
52942;SDS011;38809;53.300;6.614;2022-11-15T16:05:39;6.77;;;4.90;;
52942;SDS011;38809;53.300;6.614;2022-11-15T16:08:14;7.95;;;4.85;;
52942;SDS011;38809;53.300;6.614;2022-11-15T16:10:49;5.22;;;4.20;;
52942;SDS011;38809;53.300;6.614;2022-11-15T16:13:15;7.63;;;4.50;;
52942;SDS011;38809;53.300;6.614;2022-11-15T16:15:41;5.35;;;3.75;;
52942;SDS011;38809;53.300;6.614;2022-11-15T16:18:14;6.15;;;3.45;;
52942;SDS011;38809;53.300;6.614;2022-11-15T16:20:44;5.10;;;3.70;;
52942;SDS011;38809;53.300;6.614;2022-11-15T16:23:15;6.82;;;4.20;;
52942;SDS011;38809;53.300;6.614;2022-11-15T16:25:49;6.57;;;4.20;;
52942;SDS011;38809;53.300;6.614;2022-11-15T16:30:44;6.32;;;4.75;;
52942;SDS011;38809;53.300;6.614;2022-11-15T16:33:10;6.28;;;4.07;;
52942;SDS011;38809;53.300;6.614;2022-11-15T16:35:36;6.57;;;4.47;;
52942;SDS011;38809;53.300;6.614;2022-11-15T16:38:02;6.22;;;4.50;;
52942;SDS011;38809;53.300;6.614;2022-11-15T16:40:28;4.90;;;4.37;;
52942;SDS011;38809;53.300;6.614;2022-11-15T16:42:57;5.82;;;4.13;;
52942;SDS011;38809;53.300;6.614;2022-11-15T16:45:28;5.10;;;4.30;;
52942;SDS011;38809;53.300;6.614;2022-11-15T16:47:55;5.28;;;4.28;;
52942;SDS011;38809;53.300;6.614;2022-11-15T16:50:25;5.88;;;4.80;;
52942;SDS011;38809;53.300;6.614;2022-11-15T16:52:52;4.88;;;4.20;;
52942;SDS011;38809;53.300;6.614;2022-11-15T16:55:20;6.75;;;4.53;;
52942;SDS011;38809;53.300;6.614;2022-11-15T16:57:47;6.32;;;5.05;;
52942;SDS011;38809;53.300;6.614;2022-11-15T17:00:14;5.25;;;4.57;;
52942;SDS011;38809;53.300;6.614;2022-11-15T17:02:42;5.30;;;4.47;;
52942;SDS011;38809;53.300;6.614;2022-11-15T17:05:08;5.85;;;4.72;;
52942;SDS011;38809;53.300;6.614;2022-11-15T17:07:34;5.70;;;4.38;;
52942;SDS011;38809;53.300;6.614;2022-11-15T17:10:00;5.03;;;4.28;;
52942;SDS011;38809;53.300;6.614;2022-11-15T17:12:26;5.73;;;5.00;;
52942;SDS011;38809;53.300;6.614;2022-11-15T17:14:52;4.55;;;3.78;;
52942;SDS011;38809;53.300;6.614;2022-11-15T17:17:18;6.60;;;4.13;;
52942;SDS011;38809;53.300;6.614;2022-11-15T17:19:44;5.18;;;4.50;;